Time;durP1;ratioP1;P1;durP2;ratioP2;P2;SDS_P1;SDS_P2;PMS_P1;PMS_P2;Temp;Humidity;BMP_temperature;BMP_pressure;BME280_temperature;BME280_humidity;BME280_pressure;Samples;Min_cycle;Max_cycle;Signal;HPM_P1;HPM_P2
2023/03/03 00:01:08;;;;;;;101.70;25.60;;;2.80;91.30;;;;;;5040603;28;20200;-86
2023/03/03 00:03:33;;;;;;;100.70;27.98;;;2.80;93.90;;;;;;5039399;28;20520;-85
2023/03/03 00:06:06;;;;;;;97.20;26.07;;;2.80;96.30;;;;;;5057474;28;20164;-85
2023/03/03 00:08:35;;;;;;;101.95;24.67;;;2.70;97.30;;;;;;5039759;28;20744;-85
2023/03/03 00:11:03;;;;;;;100.30;27.58;;;2.70;99.80;;;;;;5039332;28;20261;-85
2023/03/03 00:13:30;;;;;;;107.95;28.15;;;2.80;97.00;;;;;;5056952;28;20279;-85
2023/03/03 00:16:30;;;;;;;104.10;26.08;;;2.80;96.50;;;;;;5057664;28;20229;-85
2023/03/03 00:19:00;;;;;;;99.32;26.42;;;2.80;96.20;;;;;;5056347;28;20261;-86
2023/03/03 00:21:32;;;;;;;105.10;28.90;;;2.70;98.50;;;;;;5056648;28;20161;-86
2023/03/03 00:24:19;;;;;;;99.47;25.92;;;2.70;96.20;;;;;;5039342;28;20291;-86
2023/03/03 00:26:56;;;;;;;103.55;26.25;;;2.60;94.50;;;;;;5038908;28;20160;-85
2023/03/03 00:29:44;;;;;;;101.72;27.20;;;2.60;95.60;;;;;;5039043;28;20217;-86
2023/03/03 00:32:41;;;;;;;98.03;27.40;;;2.60;98.10;;;;;;5056997;28;20196;-86
2023/03/03 00:35:22;;;;;;;103.80;27.35;;;2.60;99.00;;;;;;5057592;28;20156;-86
2023/03/03 00:37:51;;;;;;;102.10;30.05;;;2.60;99.90;;;;;;5039423;28;20170;-86
2023/03/03 00:40:43;;;;;;;100.13;27.08;;;2.60;99.90;;;;;;5057423;28;20244;-85
2023/03/03 00:43:21;;;;;;;103.72;26.75;;;2.50;99.90;;;;;;5054995;28;20239;-86
2023/03/03 00:45:53;;;;;;;94.10;25.13;;;2.60;96.80;;;;;;5057249;28;20152;-86
2023/03/03 00:48:18;;;;;;;102.20;27.70;;;2.50;98.80;;;;;;5057162;28;20163;-86
2023/03/03 00:50:47;;;;;;;101.93;30.27;;;2.40;99.90;;;;;;5057219;28;20583;-85
2023/03/03 00:53:18;;;;;;;102.32;29.38;;;2.40;99.90;;;;;;5057271;28;20566;-85
2023/03/03 00:55:45;;;;;;;104.65;29.23;;;2.40;99.90;;;;;;5057283;28;20490;-84
2023/03/03 00:58:12;;;;;;;103.95;25.85;;;2.20;99.80;;;;;;5038030;28;20179;-85
2023/03/03 01:00:39;;;;;;;112.15;28.23;;;2.00;99.90;;;;;;5056567;28;20192;-85
2023/03/03 01:03:13;;;;;;;102.75;26.17;;;2.00;99.90;;;;;;5038454;28;20204;-85
2023/03/03 01:05:39;;;;;;;105.15;29.58;;;2.20;99.90;;;;;;5039045;28;20524;-84
2023/03/03 01:08:08;;;;;;;102.20;27.93;;;2.10;99.90;;;;;;5040101;28;20164;-85
2023/03/03 01:10:39;;;;;;;102.15;27.15;;;1.90;99.90;;;;;;5057301;28;20160;-85
2023/03/03 01:13:06;;;;;;;108.03;28.98;;;1.80;99.90;;;;;;5058831;28;20318;-85
2023/03/03 01:15:31;;;;;;;102.90;28.05;;;1.80;99.90;;;;;;5061424;28;20165;-86
2023/03/03 01:17:57;;;;;;;99.93;26.47;;;1.80;99.90;;;;;;5061516;28;20215;-86
2023/03/03 01:20:23;;;;;;;108.85;26.98;;;1.70;99.90;;;;;;5043575;28;20172;-84
2023/03/03 01:22:49;;;;;;;102.17;28.37;;;1.70;99.90;;;;;;5044095;28;20196;-85
2023/03/03 01:25:15;;;;;;;108.27;30.50;;;1.80;99.90;;;;;;5044116;28;20407;-84
2023/03/03 01:27:41;;;;;;;111.17;36.03;;;1.90;99.90;;;;;;5044560;28;20165;-85
2023/03/03 01:30:07;;;;;;;106.70;33.37;;;2.00;99.90;;;;;;5061794;28;20410;-85
2023/03/03 01:32:33;;;;;;;108.57;34.47;;;2.00;99.90;;;;;;5043549;28;20204;-86
2023/03/03 01:34:59;;;;;;;115.07;35.93;;;2.00;99.90;;;;;;5061532;28;20236;-85
2023/03/03 01:37:25;;;;;;;109.20;35.57;;;2.00;99.90;;;;;;5044091;28;20251;-85
2023/03/03 01:39:54;;;;;;;110.20;33.87;;;2.00;99.90;;;;;;5044133;28;20165;-86
2023/03/03 01:42:20;;;;;;;109.50;34.90;;;2.00;99.90;;;;;;5062091;28;20411;-86
2023/03/03 01:44:48;;;;;;;111.05;37.30;;;2.00;99.90;;;;;;5061888;28;20165;-85
2023/03/03 01:47:24;;;;;;;109.85;34.40;;;2.00;99.90;;;;;;5062529;28;20169;-85
2023/03/03 01:49:58;;;;;;;106.05;36.53;;;2.00;99.90;;;;;;5044072;28;20156;-85
2023/03/03 01:52:39;;;;;;;109.70;33.50;;;2.00;99.90;;;;;;5062420;28;20180;-86
2023/03/03 01:55:24;;;;;;;112.88;37.10;;;1.90;99.90;;;;;;5062844;28;20184;-86
2023/03/03 01:57:59;;;;;;;116.30;37.50;;;1.90;99.90;;;;;;5061792;28;20171;-85
2023/03/03 02:00:26;;;;;;;109.25;34.13;;;1.80;99.90;;;;;;5062095;28;20153;-86
2023/03/03 02:02:53;;;;;;;111.93;38.70;;;1.70;99.90;;;;;;5044419;28;20204;-86
2023/03/03 02:05:19;;;;;;;110.47;38.63;;;1.80;99.90;;;;;;5044437;28;20165;-86
2023/03/03 02:07:45;;;;;;;109.10;36.93;;;1.60;99.90;;;;;;5044507;28;20169;-86
2023/03/03 02:10:14;;;;;;;111.43;34.47;;;1.60;99.90;;;;;;5043624;28;20949;-85
2023/03/03 02:12:50;;;;;;;110.05;36.50;;;1.50;99.90;;;;;;5043874;28;20196;-85
2023/03/03 02:15:16;;;;;;;114.38;35.63;;;1.60;99.90;;;;;;5061787;28;20157;-85
2023/03/03 02:17:41;;;;;;;113.77;33.70;;;1.60;99.90;;;;;;5043544;28;20254;-85
2023/03/03 02:20:19;;;;;;;118.60;38.87;;;1.70;99.90;;;;;;5043518;28;20933;-85
2023/03/03 02:23:12;;;;;;;112.55;37.22;;;1.60;99.90;;;;;;5043975;28;20207;-85
2023/03/03 02:25:54;;;;;;;114.65;38.33;;;1.50;99.90;;;;;;5060110;28;20559;-84
2023/03/03 02:28:24;;;;;;;112.13;39.85;;;1.50;99.90;;;;;;5042363;28;20164;-85
2023/03/03 02:30:56;;;;;;;110.93;36.88;;;1.40;99.90;;;;;;5060149;28;20165;-85
2023/03/03 02:33:22;;;;;;;117.50;38.75;;;1.40;99.90;;;;;;5041587;28;20242;-85
2023/03/03 02:35:48;;;;;;;117.23;39.23;;;1.40;99.90;;;;;;5042495;28;20202;-85
2023/03/03 02:38:40;;;;;;;114.15;36.83;;;1.30;99.90;;;;;;5060366;28;20407;-85
2023/03/03 02:41:23;;;;;;;114.88;37.20;;;1.30;99.90;;;;;;5062657;28;20141;-85
2023/03/03 02:43:58;;;;;;;115.25;37.10;;;1.30;99.90;;;;;;5063201;28;20176;-84
2023/03/03 02:46:24;;;;;;;109.88;32.25;;;1.30;99.90;;;;;;5061917;28;20148;-84
2023/03/03 02:48:50;;;;;;;116.15;37.25;;;1.30;99.90;;;;;;5062393;28;20161;-85
2023/03/03 02:51:16;;;;;;;111.60;35.03;;;1.40;99.90;;;;;;5061495;28;20167;-85
2023/03/03 02:53:42;;;;;;;112.37;32.10;;;1.40;99.90;;;;;;5043695;28;20168;-86
2023/03/03 02:56:08;;;;;;;114.77;33.60;;;1.40;99.90;;;;;;5061651;28;20230;-85
2023/03/03 02:58:35;;;;;;;114.25;31.73;;;1.50;99.90;;;;;;5061149;28;20409;-85
2023/03/03 03:01:01;;;;;;;121.60;34.15;;;1.40;99.90;;;;;;5061074;28;20647;-85
2023/03/03 03:03:27;;;;;;;114.95;31.85;;;1.30;99.90;;;;;;5060875;28;20193;-85
2023/03/03 03:05:53;;;;;;;120.60;31.65;;;1.40;99.90;;;;;;5043174;28;20164;-85
2023/03/03 03:08:18;;;;;;;115.90;32.93;;;1.40;99.90;;;;;;5060577;28;20544;-85
2023/03/03 03:10:44;;;;;;;109.40;30.60;;;1.40;99.90;;;;;;5043535;28;20200;-85
2023/03/03 03:13:10;;;;;;;119.00;32.07;;;1.40;99.90;;;;;;5043013;28;20279;-86
2023/03/03 03:15:36;;;;;;;112.85;34.40;;;1.40;99.90;;;;;;5061233;28;20184;-85
2023/03/03 03:18:02;;;;;;;115.80;31.73;;;1.50;99.90;;;;;;5044871;28;20179;-84
2023/03/03 03:20:28;;;;;;;114.40;31.42;;;1.40;99.90;;;;;;5044451;28;20650;-85
2023/03/03 03:22:54;;;;;;;115.97;34.80;;;1.50;99.90;;;;;;5061199;28;20242;-85
2023/03/03 03:25:19;;;;;;;119.10;34.80;;;1.40;99.90;;;;;;5061945;28;20171;-85
2023/03/03 03:27:45;;;;;;;116.73;32.93;;;1.50;99.90;;;;;;5061287;28;20624;-85
2023/03/03 03:30:11;;;;;;;114.10;32.40;;;1.50;99.90;;;;;;5060562;28;20247;-85
2023/03/03 03:32:36;;;;;;;115.57;31.67;;;1.60;99.90;;;;;;5041566;28;20204;-85
2023/03/03 03:35:02;;;;;;;116.57;33.87;;;1.60;99.90;;;;;;5060345;28;20885;-85
2023/03/03 03:37:31;;;;;;;115.00;32.30;;;1.60;99.90;;;;;;5059507;28;20243;-86
2023/03/03 03:39:57;;;;;;;118.90;33.08;;;1.60;99.90;;;;;;5041884;28;20172;-85
2023/03/03 03:42:22;;;;;;;116.87;29.67;;;1.60;99.90;;;;;;5060137;28;20192;-85
2023/03/03 03:44:49;;;;;;;120.50;31.00;;;1.60;99.90;;;;;;5060057;28;20575;-85
2023/03/03 03:47:15;;;;;;;119.50;32.28;;;1.60;99.90;;;;;;5059939;28;20153;-85
2023/03/03 03:49:41;;;;;;;115.60;30.60;;;1.70;99.90;;;;;;5059657;28;20509;-86
2023/03/03 03:52:09;;;;;;;116.87;29.50;;;1.70;99.90;;;;;;5041852;28;20659;-85
2023/03/03 03:54:35;;;;;;;118.13;33.63;;;1.70;99.90;;;;;;5059635;28;20544;-85
2023/03/03 03:57:00;;;;;;;112.87;30.40;;;1.70;99.90;;;;;;5060155;28;20263;-85
2023/03/03 03:59:26;;;;;;;114.13;29.00;;;1.70;99.90;;;;;;5059881;28;20214;-85
2023/03/03 04:01:52;;;;;;;112.80;32.60;;;1.70;99.90;;;;;;5041707;28;20434;-85
2023/03/03 04:04:17;;;;;;;112.87;30.83;;;1.60;99.90;;;;;;5041615;28;20200;-85
2023/03/03 04:06:43;;;;;;;122.67;35.60;;;1.60;99.90;;;;;;5059926;28;20165;-85
2023/03/03 04:09:09;;;;;;;120.70;30.57;;;1.50;99.90;;;;;;5059344;28;20168;-85
2023/03/03 04:11:38;;;;;;;120.82;35.28;;;1.50;99.90;;;;;;5060708;28;20187;-85
2023/03/03 04:14:03;;;;;;;112.70;31.35;;;1.60;99.90;;;;;;5044207;28;20172;-84
2023/03/03 04:16:29;;;;;;;113.60;31.87;;;1.60;99.90;;;;;;5061341;28;20171;-85
2023/03/03 04:18:55;;;;;;;121.80;32.47;;;1.60;99.90;;;;;;5043706;28;20766;-85
2023/03/03 04:21:20;;;;;;;119.63;33.20;;;1.70;99.90;;;;;;5060855;28;20509;-85
2023/03/03 04:23:49;;;;;;;117.63;33.27;;;1.70;99.90;;;;;;5059902;28;20203;-85
2023/03/03 04:26:15;;;;;;;128.63;33.80;;;1.70;99.90;;;;;;5042468;28;20196;-85
2023/03/03 04:28:43;;;;;;;120.13;32.23;;;1.70;99.90;;;;;;5060330;28;20161;-85
2023/03/03 04:31:09;;;;;;;116.32;29.20;;;1.80;99.90;;;;;;5059732;28;20932;-84
2023/03/03 04:33:35;;;;;;;117.40;31.90;;;1.80;99.90;;;;;;5060195;28;20163;-85
2023/03/03 04:36:01;;;;;;;114.30;29.70;;;1.90;99.90;;;;;;5060133;28;20531;-86
2023/03/03 04:38:26;;;;;;;117.90;30.38;;;1.90;99.90;;;;;;5060124;28;20410;-85
2023/03/03 04:40:52;;;;;;;114.73;30.47;;;1.80;99.90;;;;;;5060116;28;20195;-85
2023/03/03 04:43:20;;;;;;;114.40;29.53;;;1.80;99.90;;;;;;5041410;28;20750;-85
2023/03/03 04:45:46;;;;;;;104.78;28.48;;;1.90;99.90;;;;;;5061103;28;20639;-85
2023/03/03 04:48:12;;;;;;;118.70;29.80;;;1.90;99.90;;;;;;5060781;28;20189;-85
2023/03/03 04:50:37;;;;;;;111.80;30.50;;;1.90;99.90;;;;;;5045423;28;20171;-85
2023/03/03 04:53:03;;;;;;;122.80;32.63;;;1.90;99.90;;;;;;5063400;28;20193;-85
2023/03/03 04:55:29;;;;;;;109.60;31.00;;;2.00;99.90;;;;;;5045018;28;20173;-85
2023/03/03 04:57:54;;;;;;;112.87;29.67;;;1.90;99.90;;;;;;5045443;28;20172;-85
2023/03/03 05:00:20;;;;;;;110.10;26.30;;;1.80;99.90;;;;;;5045008;28;20168;-86
2023/03/03 05:02:47;;;;;;;109.77;28.00;;;1.70;99.90;;;;;;5063035;28;20207;-85
2023/03/03 05:05:13;;;;;;;108.25;28.85;;;1.60;99.90;;;;;;5062955;28;20230;-85
2023/03/03 05:07:39;;;;;;;106.40;28.40;;;1.70;99.90;;;;;;5062984;28;20152;-86
2023/03/03 05:10:06;;;;;;;109.00;29.05;;;1.60;99.90;;;;;;5063046;28;20160;-86
2023/03/03 05:12:32;;;;;;;113.55;28.45;;;1.60;99.90;;;;;;5045161;28;20207;-86
2023/03/03 05:14:58;;;;;;;110.90;29.07;;;1.60;99.90;;;;;;5062433;28;20627;-86
2023/03/03 05:17:23;;;;;;;113.80;31.63;;;1.70;99.90;;;;;;5062659;28;20199;-85
2023/03/03 05:19:49;;;;;;;111.33;28.97;;;1.70;99.90;;;;;;5063077;28;20164;-86
2023/03/03 05:22:15;;;;;;;109.80;29.17;;;1.70;99.90;;;;;;5062597;28;20255;-86
2023/03/03 05:24:41;;;;;;;108.90;26.47;;;1.70;99.90;;;;;;5044348;28;20196;-85
2023/03/03 05:27:08;;;;;;;108.10;26.80;;;1.90;99.90;;;;;;5062244;28;20703;-85
2023/03/03 05:29:33;;;;;;;103.30;25.85;;;1.90;99.90;;;;;;5044368;28;20173;-86
2023/03/03 05:32:02;;;;;;;102.50;26.23;;;1.90;99.90;;;;;;5062581;28;20203;-85
2023/03/03 05:34:28;;;;;;;102.15;26.38;;;1.90;99.90;;;;;;5062125;28;20176;-85
2023/03/03 05:36:53;;;;;;;107.60;26.17;;;1.90;99.90;;;;;;5043827;28;20172;-85
2023/03/03 05:39:28;;;;;;;102.87;23.83;;;1.90;99.90;;;;;;5062927;28;20247;-86
2023/03/03 05:41:57;;;;;;;108.75;29.90;;;1.90;99.90;;;;;;5062252;28;20244;-85
2023/03/03 05:44:22;;;;;;;108.00;28.38;;;1.90;99.90;;;;;;5043176;28;20184;-83
2023/03/03 05:46:50;;;;;;;115.33;32.00;;;1.90;99.90;;;;;;5060076;28;20160;-84
2023/03/03 05:49:16;;;;;;;106.55;28.83;;;1.90;99.90;;;;;;5045047;28;20175;-84
2023/03/03 05:51:45;;;;;;;106.37;28.33;;;2.00;99.90;;;;;;5041739;28;20188;-85
2023/03/03 05:54:10;;;;;;;103.35;26.92;;;2.00;99.90;;;;;;5059499;28;20229;-84
2023/03/03 05:59:37;;;;;;;106.65;26.73;;;2.00;99.90;;;;;;4997668;28;20186;-85
2023/03/03 06:02:37;;;;;;;100.88;25.50;;;1.90;99.90;;;;;;5038603;28;20208;-85
2023/03/03 06:05:57;;;;;;;111.45;26.60;;;1.90;99.90;;;;;;5042335;28;20179;-84
2023/03/03 06:08:54;;;;;;;113.10;28.83;;;1.90;99.90;;;;;;5044696;28;20164;-85
2023/03/03 06:11:36;;;;;;;;;;;;;;;;;;;;;
2023/03/03 06:16:59;;;;;;;106.20;27.50;;;2.00;99.90;;;;;;5061072;28;20159;-85
2023/03/03 06:19:31;;;;;;;107.82;25.85;;;2.00;99.90;;;;;;5043030;28;20170;-85
2023/03/03 06:21:57;;;;;;;109.47;25.38;;;1.90;99.90;;;;;;5043645;28;20192;-86
2023/03/03 06:24:30;;;;;;;108.97;29.00;;;1.90;99.90;;;;;;5045130;28;20196;-86
2023/03/03 06:27:17;;;;;;;104.85;25.10;;;1.90;99.90;;;;;;5044910;28;20231;-85
2023/03/03 06:29:51;;;;;;;105.35;24.30;;;1.90;99.90;;;;;;5061425;28;20164;-86
2023/03/03 06:32:30;;;;;;;110.80;28.40;;;1.90;99.90;;;;;;5042221;28;20228;-87
2023/03/03 06:35:11;;;;;;;106.85;27.92;;;2.00;99.90;;;;;;5042596;28;20156;-85
2023/03/03 06:37:49;;;;;;;109.88;27.65;;;2.10;99.90;;;;;;5043064;28;20619;-85
2023/03/03 06:40:18;;;;;;;102.88;26.10;;;2.00;99.90;;;;;;5042989;28;20161;-85
2023/03/03 06:42:47;;;;;;;104.72;25.95;;;2.00;99.90;;;;;;5042550;28;20698;-85
2023/03/03 06:45:52;;;;;;;108.43;25.98;;;1.90;99.90;;;;;;5042385;28;20246;-84
2023/03/03 06:49:04;;;;;;;;;;;;;;;;;;;;;
2023/03/03 06:51:33;;;;;;;104.63;26.55;;;1.80;99.90;;;;;;5059170;28;20275;-84
2023/03/03 06:54:16;;;;;;;111.03;27.08;;;1.70;99.90;;;;;;5041403;28;20176;-84
2023/03/03 06:56:47;;;;;;;103.15;26.15;;;1.70;99.90;;;;;;5059494;28;20187;-84
2023/03/03 06:59:27;;;;;;;108.55;26.50;;;1.80;99.90;;;;;;5041297;28;20698;-84
2023/03/03 07:02:37;;;;;;;113.03;28.90;;;1.70;99.90;;;;;;5059181;28;20215;-84
2023/03/03 07:05:31;;;;;;;115.47;29.05;;;1.80;99.90;;;;;;5017177;28;20181;-84
2023/03/03 07:08:06;;;;;;;115.20;27.92;;;1.80;99.90;;;;;;5018643;28;20172;-84
2023/03/03 07:10:39;;;;;;;122.05;30.58;;;1.80;99.90;;;;;;5041693;28;20172;-84
2023/03/03 07:13:49;;;;;;;113.57;28.45;;;1.70;99.90;;;;;;5042751;28;20192;-84
2023/03/03 07:17:06;;;;;;;114.82;29.38;;;1.70;99.90;;;;;;5002427;28;20184;-84
2023/03/03 07:23:15;;;;;;;124.30;32.40;;;1.80;99.90;;;;;;5015199;28;20232;-84
2023/03/03 07:26:07;;;;;;;122.47;33.03;;;1.70;99.90;;;;;;5002135;28;20201;-84
2023/03/03 07:28:33;;;;;;;129.77;36.38;;;1.60;99.90;;;;;;5002153;28;20680;-85
2023/03/03 07:30:59;;;;;;;119.18;28.33;;;1.70;99.90;;;;;;5019036;28;20170;-85
2023/03/03 07:33:41;;;;;;;120.90;30.40;;;1.80;99.90;;;;;;5040493;28;20557;-85
2023/03/03 07:36:33;;;;;;;115.10;31.10;;;1.80;99.90;;;;;;5042278;28;20422;-85
2023/03/03 07:39:04;;;;;;;117.10;29.45;;;1.80;99.90;;;;;;5060741;28;20230;-85
2023/03/03 07:41:33;;;;;;;119.13;29.73;;;1.80;99.90;;;;;;5060527;28;20230;-84
2023/03/03 07:44:21;;;;;;;113.35;28.65;;;1.80;99.90;;;;;;5041038;28;20273;-84
2023/03/03 07:46:50;;;;;;;126.10;32.47;;;1.80;99.90;;;;;;5040862;28;20169;-83
2023/03/03 07:49:23;;;;;;;114.65;31.65;;;1.90;99.90;;;;;;5040382;28;20168;-84
2023/03/03 07:52:00;;;;;;;111.38;28.40;;;1.90;99.90;;;;;;5040372;28;20185;-83
2023/03/03 07:54:42;;;;;;;117.82;31.80;;;1.90;99.90;;;;;;5058922;28;20192;-85
2023/03/03 07:57:28;;;;;;;122.97;32.15;;;2.10;99.90;;;;;;5042143;28;20650;-85
2023/03/03 08:00:17;;;;;;;113.05;30.20;;;2.00;99.90;;;;;;5059837;28;20186;-84
2023/03/03 08:02:47;;;;;;;116.90;30.25;;;2.10;99.90;;;;;;5059524;28;20195;-85
2023/03/03 08:05:28;;;;;;;106.22;28.40;;;2.20;99.90;;;;;;5059564;28;20271;-84
2023/03/03 08:08:35;;;;;;;109.97;28.33;;;2.20;99.90;;;;;;5059480;28;20160;-85
2023/03/03 08:11:03;;;;;;;110.05;27.75;;;2.20;99.90;;;;;;5058942;28;20151;-85
2023/03/03 08:13:42;;;;;;;113.78;28.92;;;2.00;99.90;;;;;;5058735;28;20207;-86
2023/03/03 08:16:07;;;;;;;118.93;30.27;;;2.10;99.90;;;;;;5059375;28;20160;-85
2023/03/03 08:18:39;;;;;;;108.80;27.20;;;2.20;99.90;;;;;;5058895;28;20210;-85
2023/03/03 08:21:19;;;;;;;105.47;25.20;;;2.30;99.90;;;;;;5059306;28;20624;-85
2023/03/03 08:23:48;;;;;;;106.18;29.40;;;2.40;99.90;;;;;;5061111;28;20188;-85
2023/03/03 08:26:13;;;;;;;101.43;28.95;;;2.40;99.90;;;;;;5062623;28;20205;-85
2023/03/03 08:28:39;;;;;;;102.47;30.90;;;2.40;99.90;;;;;;5063083;28;20569;-85
2023/03/03 08:31:05;;;;;;;108.53;29.95;;;2.40;99.90;;;;;;5063838;28;20251;-85
2023/03/03 08:33:49;;;;;;;105.23;30.93;;;2.40;99.90;;;;;;5062401;28;20277;-86
2023/03/03 08:36:18;;;;;;;106.07;28.23;;;2.40;99.90;;;;;;5044475;28;20624;-86
2023/03/03 08:38:44;;;;;;;103.10;30.48;;;2.50;99.90;;;;;;5062866;28;20168;-86
2023/03/03 08:41:13;;;;;;;99.30;30.07;;;2.30;99.90;;;;;;5045229;28;20176;-86
2023/03/03 08:43:50;;;;;;;113.35;30.85;;;2.30;99.90;;;;;;5062902;28;20964;-85
2023/03/03 08:46:32;;;;;;;106.32;29.55;;;2.20;99.90;;;;;;5062326;28;20174;-86
2023/03/03 08:49:02;;;;;;;119.05;34.20;;;2.30;99.90;;;;;;5063145;28;20489;-86
2023/03/03 08:52:05;;;;;;;106.25;29.85;;;2.40;99.90;;;;;;5045291;28;20647;-86
2023/03/03 08:54:36;;;;;;;106.25;29.77;;;2.50;99.90;;;;;;5044708;28;20532;-86
2023/03/03 08:57:02;;;;;;;114.68;31.65;;;2.40;99.90;;;;;;5063396;28;20168;-85
2023/03/03 08:59:37;;;;;;;104.40;32.17;;;2.40;99.90;;;;;;5045352;28;20180;-85
2023/03/03 09:02:16;;;;;;;104.30;27.83;;;2.50;99.90;;;;;;5063339;28;20427;-85
2023/03/03 09:04:42;;;;;;;105.10;28.13;;;2.50;99.10;;;;;;5064166;28;20191;-85
2023/03/03 09:07:19;;;;;;;104.72;27.30;;;2.60;99.20;;;;;;5063605;28;20616;-85
2023/03/03 09:09:45;;;;;;;110.47;30.35;;;2.60;97.80;;;;;;5045108;28;20218;-85
2023/03/03 09:12:26;;;;;;;95.97;26.52;;;2.50;95.70;;;;;;5044314;28;20200;-84
2023/03/03 09:14:54;;;;;;;104.75;28.27;;;2.50;97.20;;;;;;5042826;28;20226;-84
2023/03/03 09:17:32;;;;;;;107.22;31.55;;;2.60;98.30;;;;;;5044934;28;20195;-84
2023/03/03 09:20:21;;;;;;;103.70;29.15;;;2.60;96.30;;;;;;5044263;28;20175;-85
2023/03/03 09:22:49;;;;;;;110.47;28.23;;;2.50;97.20;;;;;;5061469;28;20281;-84
2023/03/03 09:25:33;;;;;;;99.53;28.23;;;2.60;97.90;;;;;;5062149;28;20161;-84
2023/03/03 09:28:01;;;;;;;106.45;30.20;;;2.60;97.60;;;;;;5062265;28;20149;-85
2023/03/03 09:30:47;;;;;;;115.05;28.23;;;2.70;96.10;;;;;;5061707;28;20174;-85
2023/03/03 09:33:50;;;;;;;108.88;26.60;;;2.80;96.60;;;;;;5061703;28;20207;-85
2023/03/03 09:36:41;;;;;;;101.97;26.88;;;2.80;94.80;;;;;;5043699;28;20259;-86
2023/03/03 09:39:25;;;;;;;101.38;26.35;;;2.90;91.20;;;;;;5044860;28;20165;-86
2023/03/03 09:42:29;;;;;;;105.22;26.25;;;2.90;92.00;;;;;;5044877;28;20204;-85
2023/03/03 09:45:18;;;;;;;99.55;26.08;;;2.90;91.40;;;;;;5061435;28;20195;-85
2023/03/03 09:48:09;;;;;;;104.82;25.00;;;2.90;90.30;;;;;;5061323;28;20144;-85
2023/03/03 09:51:07;;;;;;;101.85;25.58;;;3.10;91.50;;;;;;5043539;28;20168;-85
2023/03/03 09:53:35;;;;;;;100.55;26.27;;;3.20;86.10;;;;;;5044412;28;20246;-85
2023/03/03 09:56:18;;;;;;;100.57;23.85;;;3.00;81.50;;;;;;5062143;28;20626;-86
2023/03/03 09:59:04;;;;;;;94.82;22.73;;;3.10;86.20;;;;;;5062346;28;20643;-85
2023/03/03 10:02:10;;;;;;;100.65;24.85;;;3.10;84.50;;;;;;5061639;28;20267;-85
2023/03/03 10:04:54;;;;;;;100.63;24.42;;;3.20;81.60;;;;;;5061383;28;20276;-85
2023/03/03 10:07:26;;;;;;;100.97;22.77;;;3.20;77.20;;;;;;5061192;28;20145;-85
2023/03/03 10:09:54;;;;;;;107.20;23.25;;;3.10;74.70;;;;;;5044080;28;20632;-85
2023/03/03 10:12:41;;;;;;;96.97;21.60;;;3.10;79.20;;;;;;5060870;28;20181;-85
2023/03/03 10:15:25;;;;;;;101.03;23.95;;;3.10;78.70;;;;;;5061878;28;20321;-85
2023/03/03 10:18:14;;;;;;;100.13;23.58;;;3.20;78.60;;;;;;5043941;28;20161;-86
2023/03/03 10:20:55;;;;;;;94.47;21.10;;;3.20;79.00;;;;;;5044000;28;20153;-85
2023/03/03 10:23:55;;;;;;;106.53;23.52;;;3.20;75.30;;;;;;5060810;28;20184;-85
2023/03/03 10:26:23;;;;;;;101.88;22.80;;;3.30;76.70;;;;;;5043808;28;20161;-86
2023/03/03 10:29:15;;;;;;;104.53;24.88;;;3.30;76.10;;;;;;5060840;28;20183;-85
2023/03/03 10:31:47;;;;;;;104.32;22.63;;;3.30;79.50;;;;;;5043938;28;20196;-85
2023/03/03 10:34:31;;;;;;;107.25;23.75;;;3.40;75.50;;;;;;5061090;28;20175;-86
2023/03/03 10:37:14;;;;;;;102.82;22.05;;;3.50;71.90;;;;;;5043613;28;20270;-85
2023/03/03 10:39:52;;;;;;;107.35;23.38;;;3.60;71.30;;;;;;5061566;28;20160;-85
2023/03/03 10:42:51;;;;;;;104.53;22.48;;;3.60;61.60;;;;;;5062689;28;20196;-85
2023/03/03 10:45:43;;;;;;;102.85;20.30;;;3.70;61.20;;;;;;5045080;28;20184;-84
2023/03/03 10:48:31;;;;;;;106.00;22.50;;;3.70;59.30;;;;;;5046902;28;20173;-85
2023/03/03 10:51:23;;;;;;;107.90;22.27;;;3.80;53.50;;;;;;5043697;28;20167;-85
2023/03/03 10:54:29;;;;;;;105.80;20.92;;;3.70;52.10;;;;;;5043057;28;20164;-84
2023/03/03 10:57:02;;;;;;;106.35;20.85;;;3.80;54.30;;;;;;5043564;28;20180;-85
2023/03/03 10:59:54;;;;;;;101.70;19.38;;;4.00;52.90;;;;;;5059891;28;20179;-84
2023/03/03 11:02:29;;;;;;;97.55;19.73;;;4.10;48.60;;;;;;5041720;28;20204;-85
2023/03/03 11:05:15;;;;;;;99.80;20.80;;;4.20;43.10;;;;;;5060097;28;20192;-86
2023/03/03 11:07:48;;;;;;;95.00;18.45;;;4.10;42.60;;;;;;5059470;28;20156;-85
2023/03/03 11:10:47;;;;;;;103.72;20.95;;;4.10;38.90;;;;;;5060172;28;20141;-85
2023/03/03 11:13:45;;;;;;;96.70;19.30;;;4.20;39.10;;;;;;5061324;28;20667;-85
2023/03/03 11:16:36;;;;;;;106.68;21.23;;;4.30;39.90;;;;;;5043179;28;20289;-85
2023/03/03 11:19:17;;;;;;;97.55;19.70;;;4.50;37.20;;;;;;5060987;28;20162;-86
2023/03/03 11:22:16;;;;;;;104.07;19.60;;;4.50;30.70;;;;;;5043380;28;20204;-86
2023/03/03 11:25:02;;;;;;;105.22;23.00;;;4.30;29.70;;;;;;5060020;28;20184;-85
2023/03/03 11:27:55;;;;;;;100.57;19.65;;;4.40;32.30;;;;;;5060206;28;20170;-86
2023/03/03 11:31:12;;;;;;;100.15;19.05;;;4.50;31.80;;;;;;5060274;28;20186;-86
2023/03/03 11:33:50;;;;;;;104.65;19.92;;;4.50;24.80;;;;;;5023544;28;20205;-85
2023/03/03 11:36:28;;;;;;;106.25;23.52;;;4.50;27.40;;;;;;5041919;28;20187;-86
2023/03/03 11:39:19;;;;;;;101.60;20.88;;;4.50;26.00;;;;;;5059689;28;20156;-86
2023/03/03 11:42:06;;;;;;;106.63;20.67;;;4.70;27.10;;;;;;5060025;28;20537;-85
2023/03/03 11:44:43;;;;;;;102.70;20.67;;;4.70;24.20;;;;;;5059737;28;20285;-86
2023/03/03 11:47:21;;;;;;;106.70;19.80;;;4.80;24.60;;;;;;5060711;28;20224;-85
2023/03/03 11:50:20;;;;;;;101.97;20.25;;;4.90;20.10;;;;;;5060139;28;20152;-85
2023/03/03 11:53:11;;;;;;;100.85;22.88;;;4.90;18.70;;;;;;5060194;28;20264;-85
2023/03/03 11:55:39;;;;;;;101.47;21.25;;;4.90;16.10;;;;;;5060772;28;20149;-85
2023/03/03 11:58:17;;;;;;;97.65;19.05;;;4.80;10.20;;;;;;5059492;28;20183;-85
2023/03/03 12:01:19;;;;;;;98.32;20.27;;;4.80;12.00;;;;;;5059554;28;20156;-86
2023/03/03 12:04:17;;;;;;;108.10;22.35;;;4.90;10.00;;;;;;5042322;28;20202;-85
2023/03/03 12:07:20;;;;;;;104.53;22.73;;;5.00;10.20;;;;;;5041783;28;20189;-85
2023/03/03 12:10:21;;;;;;;102.15;21.33;;;5.20;5.40;;;;;;5041540;28;20157;-85
2023/03/03 12:13:35;;;;;;;101.63;18.45;;;5.30;6.80;;;;;;5059792;28;20187;-85
2023/03/03 12:16:17;;;;;;;105.25;21.52;;;5.50;5.50;;;;;;5056100;28;20183;-85
2023/03/03 12:18:55;;;;;;;97.35;19.95;;;5.60;4.30;;;;;;5027523;28;20214;-86
2023/03/03 12:21:27;;;;;;;99.68;19.45;;;5.70;6.20;;;;;;5042335;28;20162;-86
2023/03/03 12:24:20;;;;;;;102.85;18.98;;;5.80;1.00;;;;;;5042837;28;20211;-86
2023/03/03 12:27:04;;;;;;;101.60;19.60;;;5.80;2.50;;;;;;5059858;28;20160;-86
2023/03/03 12:29:45;;;;;;;101.80;21.20;;;5.80;1.00;;;;;;5042010;28;20192;-85
2023/03/03 12:32:52;;;;;;;103.90;20.20;;;5.70;1.00;;;;;;5040325;28;20196;-85
2023/03/03 12:35:46;;;;;;;102.05;20.67;;;5.70;1.00;;;;;;5057958;28;20270;-86
2023/03/03 12:38:34;;;;;;;99.18;19.92;;;5.70;1.00;;;;;;5041504;28;20539;-85
2023/03/03 12:41:19;;;;;;;101.93;21.65;;;5.50;1.00;;;;;;5059832;28;20620;-85
2023/03/03 12:43:51;;;;;;;108.65;22.10;;;5.30;1.00;;;;;;5041185;28;20275;-85
2023/03/03 12:47:00;;;;;;;112.05;22.77;;;5.40;2.30;;;;;;5058735;28;20554;-86
2023/03/03 12:49:43;;;;;;;109.50;21.13;;;5.50;7.80;;;;;;5041119;28;20161;-85
2023/03/03 12:52:46;;;;;;;107.07;24.15;;;5.50;6.10;;;;;;5039914;28;20189;-86
2023/03/03 12:55:18;;;;;;;115.82;23.90;;;5.50;9.60;;;;;;5040579;28;20180;-86
2023/03/03 12:58:00;;;;;;;108.72;22.38;;;5.60;10.20;;;;;;5040586;28;20536;-86
2023/03/03 13:00:38;;;;;;;109.63;21.05;;;5.70;11.10;;;;;;5058051;28;20287;-85
2023/03/03 13:03:20;;;;;;;103.78;20.52;;;5.70;6.40;;;;;;5040326;28;20559;-85
2023/03/03 13:06:04;;;;;;;100.57;20.75;;;5.70;1.70;;;;;;5040346;28;20653;-85
2023/03/03 13:08:59;;;;;;;101.53;20.27;;;5.60;1.00;;;;;;5058453;28;20255;-85
2023/03/03 13:11:40;;;;;;;101.38;19.83;;;5.50;1.00;;;;;;5044753;28;20153;-85
2023/03/03 13:14:51;;;;;;;110.95;21.70;;;5.30;1.00;;;;;;5062870;28;20636;-85
2023/03/03 13:17:26;;;;;;;113.72;23.65;;;5.40;5.10;;;;;;5047192;28;20172;-85
2023/03/03 13:19:55;;;;;;;110.38;22.20;;;5.60;3.00;;;;;;5045295;28;20563;-84
2023/03/03 13:22:37;;;;;;;112.40;23.70;;;5.60;1.00;;;;;;5044459;28;20199;-85
2023/03/03 13:25:30;;;;;;;110.78;21.75;;;5.60;2.20;;;;;;5063058;28;20660;-85
2023/03/03 13:28:03;;;;;;;104.57;21.90;;;5.50;1.70;;;;;;5061806;28;20228;-84